Terminal Aerodrome Forecast
Issued by NWS Atlanta, GA

Home | Current Version | Previous Version | Text Only | Print | Product List | Glossary On
Versions: 1 2 3 4 5 6 7 8 9 10 11 12 13 14
000
FTUS42 KFFC 190529
TAFMCN
TAF
KMCN 190529Z 1906/2006 28004KT P6SM SKC
     FM191000 VRB03KT 5SM BR SKC
     FM191400 28007KT P6SM FEW030
     FM191800 28008KT P6SM SCT050
     FM200200 28004KT P6SM FEW050 SCT250=

USA.gov is the U.S. government's official web portal to all federal, state and local government web resources and services.